sensor_id;sensor_type;location;lat;lon;timestamp;P1;durP1;ratioP1;P2;durP2;ratioP2
65206;SDS011;58477;48.072;11.970;2023-04-05T00:01:25;6.78;;;4.63;;
65206;SDS011;58477;48.072;11.970;2023-04-05T00:03:52;7.53;;;5.30;;
65206;SDS011;58477;48.072;11.970;2023-04-05T00:06:19;6.18;;;4.88;;
65206;SDS011;58477;48.072;11.970;2023-04-05T00:08:50;7.05;;;5.03;;
65206;SDS011;58477;48.072;11.970;2023-04-05T00:11:19;7.25;;;5.00;;
65206;SDS011;58477;48.072;11.970;2023-04-05T00:13:48;13.50;;;6.38;;
65206;SDS011;58477;48.072;11.970;2023-04-05T00:16:14;7.60;;;5.03;;
65206;SDS011;58477;48.072;11.970;2023-04-05T00:18:40;7.03;;;5.10;;
65206;SDS011;58477;48.072;11.970;2023-04-05T00:21:10;8.30;;;4.50;;
65206;SDS011;58477;48.072;11.970;2023-04-05T00:23:39;6.22;;;4.47;;
65206;SDS011;58477;48.072;11.970;2023-04-05T00:26:06;10.90;;;4.82;;
65206;SDS011;58477;48.072;11.970;2023-04-05T00:28:31;8.70;;;4.68;;
65206;SDS011;58477;48.072;11.970;2023-04-05T00:30:57;5.47;;;4.13;;
65206;SDS011;58477;48.072;11.970;2023-04-05T00:33:22;6.40;;;4.90;;
65206;SDS011;58477;48.072;11.970;2023-04-05T00:35:48;6.47;;;4.78;;
65206;SDS011;58477;48.072;11.970;2023-04-05T00:38:13;11.40;;;4.88;;
65206;SDS011;58477;48.072;11.970;2023-04-05T00:40:39;8.52;;;4.60;;
65206;SDS011;58477;48.072;11.970;2023-04-05T00:43:04;4.97;;;4.25;;
65206;SDS011;58477;48.072;11.970;2023-04-05T00:45:29;5.20;;;4.38;;
65206;SDS011;58477;48.072;11.970;2023-04-05T00:47:55;5.28;;;4.10;;
65206;SDS011;58477;48.072;11.970;2023-04-05T00:50:21;7.95;;;4.53;;
65206;SDS011;58477;48.072;11.970;2023-04-05T00:52:47;6.78;;;4.45;;
65206;SDS011;58477;48.072;11.970;2023-04-05T00:55:14;5.32;;;4.70;;
65206;SDS011;58477;48.072;11.970;2023-04-05T00:57:39;5.80;;;4.35;;
65206;SDS011;58477;48.072;11.970;2023-04-05T01:00:06;6.68;;;4.32;;
65206;SDS011;58477;48.072;11.970;2023-04-05T01:02:48;5.68;;;4.15;;
65206;SDS011;58477;48.072;11.970;2023-04-05T01:10:38;6.75;;;4.32;;
65206;SDS011;58477;48.072;11.970;2023-04-05T01:13:07;6.13;;;4.30;;
65206;SDS011;58477;48.072;11.970;2023-04-05T01:15:33;7.53;;;4.78;;
65206;SDS011;58477;48.072;11.970;2023-04-05T01:17:58;6.45;;;4.38;;
65206;SDS011;58477;48.072;11.970;2023-04-05T01:20:26;9.45;;;4.80;;
65206;SDS011;58477;48.072;11.970;2023-04-05T01:32:18;5.10;;;3.83;;
65206;SDS011;58477;48.072;11.970;2023-04-05T01:35:00;9.15;;;4.97;;
65206;SDS011;58477;48.072;11.970;2023-04-05T01:37:29;8.10;;;4.45;;
65206;SDS011;58477;48.072;11.970;2023-04-05T01:39:58;7.10;;;4.38;;
65206;SDS011;58477;48.072;11.970;2023-04-05T01:42:25;5.88;;;4.20;;
65206;SDS011;58477;48.072;11.970;2023-04-05T01:44:51;10.95;;;4.57;;
65206;SDS011;58477;48.072;11.970;2023-04-05T01:47:17;5.68;;;4.38;;
65206;SDS011;58477;48.072;11.970;2023-04-05T01:49:44;5.32;;;4.30;;
65206;SDS011;58477;48.072;11.970;2023-04-05T01:52:10;7.55;;;4.75;;
65206;SDS011;58477;48.072;11.970;2023-04-05T01:54:35;7.00;;;4.75;;
65206;SDS011;58477;48.072;11.970;2023-04-05T01:57:01;7.60;;;4.85;;
65206;SDS011;58477;48.072;11.970;2023-04-05T01:59:26;6.90;;;4.82;;
65206;SDS011;58477;48.072;11.970;2023-04-05T02:01:51;5.45;;;4.40;;
65206;SDS011;58477;48.072;11.970;2023-04-05T02:04:17;5.78;;;4.60;;
65206;SDS011;58477;48.072;11.970;2023-04-05T02:06:42;7.63;;;4.85;;
65206;SDS011;58477;48.072;11.970;2023-04-05T02:09:08;7.50;;;4.68;;
65206;SDS011;58477;48.072;11.970;2023-04-05T02:11:33;7.68;;;4.50;;
65206;SDS011;58477;48.072;11.970;2023-04-05T02:13:58;5.38;;;4.70;;
65206;SDS011;58477;48.072;11.970;2023-04-05T02:16:24;8.55;;;4.93;;
65206;SDS011;58477;48.072;11.970;2023-04-05T02:18:51;6.60;;;4.80;;
65206;SDS011;58477;48.072;11.970;2023-04-05T02:21:22;9.77;;;5.30;;
65206;SDS011;58477;48.072;11.970;2023-04-05T02:23:48;6.32;;;4.90;;
65206;SDS011;58477;48.072;11.970;2023-04-05T02:26:13;7.28;;;4.90;;
65206;SDS011;58477;48.072;11.970;2023-04-05T02:28:38;6.78;;;5.10;;
65206;SDS011;58477;48.072;11.970;2023-04-05T02:31:08;8.35;;;4.43;;
65206;SDS011;58477;48.072;11.970;2023-04-05T02:33:40;7.00;;;4.95;;
65206;SDS011;58477;48.072;11.970;2023-04-05T02:36:06;7.10;;;4.95;;
65206;SDS011;58477;48.072;11.970;2023-04-05T02:38:33;6.55;;;5.00;;
65206;SDS011;58477;48.072;11.970;2023-04-05T02:40:59;9.02;;;5.38;;
65206;SDS011;58477;48.072;11.970;2023-04-05T02:43:24;6.47;;;4.57;;
65206;SDS011;58477;48.072;11.970;2023-04-05T02:45:50;6.38;;;4.65;;
65206;SDS011;58477;48.072;11.970;2023-04-05T02:48:17;7.47;;;4.97;;
65206;SDS011;58477;48.072;11.970;2023-04-05T02:50:49;6.50;;;5.07;;
65206;SDS011;58477;48.072;11.970;2023-04-05T02:53:16;9.20;;;5.50;;
65206;SDS011;58477;48.072;11.970;2023-04-05T02:58:17;5.55;;;4.68;;
65206;SDS011;58477;48.072;11.970;2023-04-05T03:00:46;5.53;;;4.50;;
65206;SDS011;58477;48.072;11.970;2023-04-05T03:03:18;5.60;;;4.38;;
65206;SDS011;58477;48.072;11.970;2023-04-05T03:05:44;7.30;;;5.10;;
65206;SDS011;58477;48.072;11.970;2023-04-05T03:08:13;7.65;;;4.65;;
65206;SDS011;58477;48.072;11.970;2023-04-05T03:10:57;7.10;;;4.60;;
65206;SDS011;58477;48.072;11.970;2023-04-05T03:13:22;6.65;;;4.80;;
65206;SDS011;58477;48.072;11.970;2023-04-05T03:15:52;9.93;;;5.10;;
65206;SDS011;58477;48.072;11.970;2023-04-05T03:18:18;5.82;;;4.80;;
65206;SDS011;58477;48.072;11.970;2023-04-05T03:20:46;7.07;;;4.97;;
65206;SDS011;58477;48.072;11.970;2023-04-05T03:23:18;7.30;;;4.88;;
65206;SDS011;58477;48.072;11.970;2023-04-05T03:25:46;7.82;;;5.10;;
65206;SDS011;58477;48.072;11.970;2023-04-05T03:28:12;10.48;;;5.40;;
65206;SDS011;58477;48.072;11.970;2023-04-05T03:30:43;8.27;;;4.95;;
65206;SDS011;58477;48.072;11.970;2023-04-05T03:33:15;6.13;;;4.53;;
65206;SDS011;58477;48.072;11.970;2023-04-05T03:35:44;6.63;;;5.25;;
65206;SDS011;58477;48.072;11.970;2023-04-05T03:38:10;8.45;;;5.22;;
65206;SDS011;58477;48.072;11.970;2023-04-05T03:40:42;6.85;;;5.15;;
65206;SDS011;58477;48.072;11.970;2023-04-05T03:43:09;6.78;;;5.47;;
65206;SDS011;58477;48.072;11.970;2023-04-05T03:45:35;13.07;;;6.10;;
65206;SDS011;58477;48.072;11.970;2023-04-05T03:48:00;9.93;;;6.07;;
65206;SDS011;58477;48.072;11.970;2023-04-05T03:50:27;10.32;;;5.50;;
65206;SDS011;58477;48.072;11.970;2023-04-05T03:52:53;7.10;;;5.30;;
65206;SDS011;58477;48.072;11.970;2023-04-05T03:55:19;9.88;;;6.07;;
65206;SDS011;58477;48.072;11.970;2023-04-05T03:57:46;12.30;;;5.97;;
65206;SDS011;58477;48.072;11.970;2023-04-05T04:00:38;7.47;;;5.15;;
65206;SDS011;58477;48.072;11.970;2023-04-05T04:03:12;9.80;;;5.22;;
65206;SDS011;58477;48.072;11.970;2023-04-05T04:05:42;8.82;;;5.03;;
65206;SDS011;58477;48.072;11.970;2023-04-05T04:08:08;8.38;;;5.50;;
65206;SDS011;58477;48.072;11.970;2023-04-05T04:10:35;9.93;;;5.60;;
65206;SDS011;58477;48.072;11.970;2023-04-05T04:13:01;7.28;;;5.10;;
65206;SDS011;58477;48.072;11.970;2023-04-05T04:15:30;6.15;;;4.80;;
65206;SDS011;58477;48.072;11.970;2023-04-05T04:18:13;8.07;;;5.00;;
65206;SDS011;58477;48.072;11.970;2023-04-05T04:20:53;14.85;;;8.13;;
65206;SDS011;58477;48.072;11.970;2023-04-05T04:23:40;9.75;;;6.18;;
65206;SDS011;58477;48.072;11.970;2023-04-05T04:26:35;8.43;;;5.30;;
65206;SDS011;58477;48.072;11.970;2023-04-05T04:29:24;6.88;;;4.75;;
65206;SDS011;58477;48.072;11.970;2023-04-05T04:32:24;5.70;;;4.88;;
65206;SDS011;58477;48.072;11.970;2023-04-05T04:35:26;7.40;;;4.45;;
65206;SDS011;58477;48.072;11.970;2023-04-05T04:38:09;13.82;;;5.68;;
65206;SDS011;58477;48.072;11.970;2023-04-05T04:40:48;8.02;;;4.60;;
65206;SDS011;58477;48.072;11.970;2023-04-05T04:43:23;8.27;;;5.53;;
65206;SDS011;58477;48.072;11.970;2023-04-05T04:46:11;7.57;;;5.45;;
65206;SDS011;58477;48.072;11.970;2023-04-05T04:48:57;9.73;;;5.30;;
65206;SDS011;58477;48.072;11.970;2023-04-05T04:51:32;6.53;;;5.22;;
65206;SDS011;58477;48.072;11.970;2023-04-05T04:53:58;5.93;;;4.05;;
65206;SDS011;58477;48.072;11.970;2023-04-05T04:56:23;6.63;;;5.00;;
65206;SDS011;58477;48.072;11.970;2023-04-05T04:58:52;7.57;;;5.20;;
65206;SDS011;58477;48.072;11.970;2023-04-05T05:01:18;5.82;;;4.70;;
65206;SDS011;58477;48.072;11.970;2023-04-05T05:03:46;8.65;;;5.55;;
65206;SDS011;58477;48.072;11.970;2023-04-05T05:06:16;6.82;;;4.82;;
65206;SDS011;58477;48.072;11.970;2023-04-05T05:08:46;6.85;;;5.75;;
65206;SDS011;58477;48.072;11.970;2023-04-05T05:11:12;8.55;;;4.30;;
65206;SDS011;58477;48.072;11.970;2023-04-05T05:13:37;5.85;;;4.75;;
65206;SDS011;58477;48.072;11.970;2023-04-05T05:16:03;7.95;;;5.50;;
65206;SDS011;58477;48.072;11.970;2023-04-05T05:18:29;7.13;;;4.38;;
65206;SDS011;58477;48.072;11.970;2023-04-05T05:20:55;5.47;;;4.13;;
65206;SDS011;58477;48.072;11.970;2023-04-05T05:23:20;9.68;;;4.85;;
65206;SDS011;58477;48.072;11.970;2023-04-05T05:25:46;4.75;;;3.53;;
65206;SDS011;58477;48.072;11.970;2023-04-05T05:28:13;11.27;;;5.65;;
65206;SDS011;58477;48.072;11.970;2023-04-05T05:30:38;9.60;;;5.60;;
65206;SDS011;58477;48.072;11.970;2023-04-05T05:33:04;4.20;;;3.15;;
65206;SDS011;58477;48.072;11.970;2023-04-05T05:35:29;6.30;;;3.97;;
65206;SDS011;58477;48.072;11.970;2023-04-05T05:37:54;5.28;;;4.43;;
65206;SDS011;58477;48.072;11.970;2023-04-05T05:40:20;8.35;;;4.68;;
65206;SDS011;58477;48.072;11.970;2023-04-05T05:42:45;12.25;;;5.05;;
65206;SDS011;58477;48.072;11.970;2023-04-05T05:45:11;6.32;;;3.90;;
65206;SDS011;58477;48.072;11.970;2023-04-05T05:47:36;9.25;;;4.43;;
65206;SDS011;58477;48.072;11.970;2023-04-05T05:50:02;4.35;;;3.85;;
65206;SDS011;58477;48.072;11.970;2023-04-05T05:52:28;6.32;;;4.10;;
65206;SDS011;58477;48.072;11.970;2023-04-05T05:54:53;5.13;;;4.35;;
65206;SDS011;58477;48.072;11.970;2023-04-05T05:57:18;5.32;;;3.63;;
65206;SDS011;58477;48.072;11.970;2023-04-05T05:59:44;7.63;;;3.92;;
65206;SDS011;58477;48.072;11.970;2023-04-05T06:02:09;7.72;;;4.55;;
65206;SDS011;58477;48.072;11.970;2023-04-05T06:04:35;8.20;;;3.90;;
65206;SDS011;58477;48.072;11.970;2023-04-05T06:07:01;8.25;;;3.85;;
65206;SDS011;58477;48.072;11.970;2023-04-05T06:09:28;4.65;;;3.75;;
65206;SDS011;58477;48.072;11.970;2023-04-05T06:11:54;5.75;;;3.45;;
65206;SDS011;58477;48.072;11.970;2023-04-05T06:14:20;9.40;;;3.75;;
65206;SDS011;58477;48.072;11.970;2023-04-05T06:16:46;5.60;;;3.45;;
65206;SDS011;58477;48.072;11.970;2023-04-05T06:19:11;10.32;;;3.83;;
65206;SDS011;58477;48.072;11.970;2023-04-05T06:21:37;5.82;;;4.07;;
65206;SDS011;58477;48.072;11.970;2023-04-05T06:24:02;7.20;;;4.00;;
65206;SDS011;58477;48.072;11.970;2023-04-05T06:26:28;6.45;;;3.58;;
65206;SDS011;58477;48.072;11.970;2023-04-05T06:28:55;6.05;;;3.97;;
65206;SDS011;58477;48.072;11.970;2023-04-05T06:31:25;4.63;;;3.22;;
65206;SDS011;58477;48.072;11.970;2023-04-05T06:33:51;7.93;;;3.97;;
65206;SDS011;58477;48.072;11.970;2023-04-05T06:36:17;5.22;;;3.20;;
65206;SDS011;58477;48.072;11.970;2023-04-05T06:38:42;6.32;;;3.97;;
65206;SDS011;58477;48.072;11.970;2023-04-05T06:41:08;7.45;;;4.18;;
65206;SDS011;58477;48.072;11.970;2023-04-05T06:43:33;6.55;;;3.88;;
65206;SDS011;58477;48.072;11.970;2023-04-05T06:45:59;7.20;;;3.90;;
65206;SDS011;58477;48.072;11.970;2023-04-05T06:48:25;12.35;;;3.78;;
65206;SDS011;58477;48.072;11.970;2023-04-05T06:50:57;5.03;;;3.72;;
65206;SDS011;58477;48.072;11.970;2023-04-05T06:53:26;8.63;;;4.40;;
65206;SDS011;58477;48.072;11.970;2023-04-05T06:55:53;9.98;;;4.00;;
65206;SDS011;58477;48.072;11.970;2023-04-05T06:58:19;7.90;;;3.75;;
65206;SDS011;58477;48.072;11.970;2023-04-05T07:00:45;5.65;;;3.80;;
65206;SDS011;58477;48.072;11.970;2023-04-05T07:03:11;7.88;;;4.40;;
65206;SDS011;58477;48.072;11.970;2023-04-05T07:05:36;4.50;;;3.03;;
65206;SDS011;58477;48.072;11.970;2023-04-05T07:08:01;6.32;;;3.90;;
65206;SDS011;58477;48.072;11.970;2023-04-05T07:10:27;5.18;;;4.00;;
65206;SDS011;58477;48.072;11.970;2023-04-05T07:12:52;5.25;;;4.00;;
65206;SDS011;58477;48.072;11.970;2023-04-05T07:15:18;5.38;;;4.10;;
65206;SDS011;58477;48.072;11.970;2023-04-05T07:17:43;6.63;;;3.20;;
65206;SDS011;58477;48.072;11.970;2023-04-05T07:20:09;5.25;;;3.90;;
65206;SDS011;58477;48.072;11.970;2023-04-05T07:22:35;5.03;;;3.95;;
65206;SDS011;58477;48.072;11.970;2023-04-05T07:25:01;5.53;;;3.85;;
65206;SDS011;58477;48.072;11.970;2023-04-05T07:27:27;6.20;;;3.95;;
65206;SDS011;58477;48.072;11.970;2023-04-05T07:29:54;6.47;;;4.60;;
65206;SDS011;58477;48.072;11.970;2023-04-05T07:32:20;4.75;;;2.50;;
65206;SDS011;58477;48.072;11.970;2023-04-05T07:34:46;8.32;;;4.88;;
65206;SDS011;58477;48.072;11.970;2023-04-05T07:37:12;7.45;;;4.28;;
65206;SDS011;58477;48.072;11.970;2023-04-05T07:39:37;8.75;;;4.22;;
65206;SDS011;58477;48.072;11.970;2023-04-05T07:42:02;7.50;;;3.90;;
65206;SDS011;58477;48.072;11.970;2023-04-05T07:44:28;6.63;;;4.43;;
65206;SDS011;58477;48.072;11.970;2023-04-05T07:46:54;7.50;;;4.10;;
65206;SDS011;58477;48.072;11.970;2023-04-05T07:49:23;5.10;;;3.83;;
65206;SDS011;58477;48.072;11.970;2023-04-05T07:51:49;7.07;;;4.32;;
65206;SDS011;58477;48.072;11.970;2023-04-05T07:54:17;4.38;;;3.83;;
65206;SDS011;58477;48.072;11.970;2023-04-05T07:56:43;10.20;;;4.20;;
65206;SDS011;58477;48.072;11.970;2023-04-05T07:59:08;5.97;;;4.20;;
65206;SDS011;58477;48.072;11.970;2023-04-05T08:01:33;5.35;;;4.13;;
65206;SDS011;58477;48.072;11.970;2023-04-05T08:03:59;7.72;;;4.25;;
65206;SDS011;58477;48.072;11.970;2023-04-05T08:06:25;7.30;;;4.63;;
65206;SDS011;58477;48.072;11.970;2023-04-05T08:08:51;8.88;;;4.03;;
65206;SDS011;58477;48.072;11.970;2023-04-05T08:11:17;7.35;;;4.50;;
65206;SDS011;58477;48.072;11.970;2023-04-05T08:13:42;8.20;;;4.20;;
65206;SDS011;58477;48.072;11.970;2023-04-05T08:16:08;6.03;;;3.72;;
65206;SDS011;58477;48.072;11.970;2023-04-05T08:18:34;8.88;;;4.18;;
65206;SDS011;58477;48.072;11.970;2023-04-05T08:21:00;6.60;;;4.60;;
65206;SDS011;58477;48.072;11.970;2023-04-05T08:23:25;9.93;;;4.13;;
65206;SDS011;58477;48.072;11.970;2023-04-05T08:25:51;7.32;;;4.25;;
65206;SDS011;58477;48.072;11.970;2023-04-05T08:28:17;8.48;;;4.55;;
65206;SDS011;58477;48.072;11.970;2023-04-05T08:30:43;8.18;;;3.78;;
65206;SDS011;58477;48.072;11.970;2023-04-05T08:33:10;8.02;;;4.50;;
65206;SDS011;58477;48.072;11.970;2023-04-05T08:35:36;3.97;;;3.63;;
65206;SDS011;58477;48.072;11.970;2023-04-05T08:38:02;5.50;;;4.00;;
65206;SDS011;58477;48.072;11.970;2023-04-05T08:40:41;7.57;;;3.83;;
65206;SDS011;58477;48.072;11.970;2023-04-05T08:43:32;6.88;;;4.00;;
65206;SDS011;58477;48.072;11.970;2023-04-05T08:46:06;4.60;;;3.30;;
65206;SDS011;58477;48.072;11.970;2023-04-05T08:48:33;4.07;;;3.65;;
65206;SDS011;58477;48.072;11.970;2023-04-05T08:51:00;10.35;;;3.88;;
65206;SDS011;58477;48.072;11.970;2023-04-05T08:53:26;5.18;;;4.05;;
65206;SDS011;58477;48.072;11.970;2023-04-05T08:55:54;6.32;;;4.10;;
65206;SDS011;58477;48.072;11.970;2023-04-05T08:58:21;3.47;;;2.72;;
65206;SDS011;58477;48.072;11.970;2023-04-05T09:00:49;5.28;;;3.65;;
65206;SDS011;58477;48.072;11.970;2023-04-05T09:03:20;4.55;;;3.47;;
65206;SDS011;58477;48.072;11.970;2023-04-05T09:05:50;7.13;;;4.00;;
65206;SDS011;58477;48.072;11.970;2023-04-05T09:08:17;6.03;;;3.97;;
65206;SDS011;58477;48.072;11.970;2023-04-05T09:10:43;5.20;;;3.72;;
65206;SDS011;58477;48.072;11.970;2023-04-05T09:13:09;5.25;;;4.03;;
65206;SDS011;58477;48.072;11.970;2023-04-05T09:15:37;5.35;;;3.90;;
65206;SDS011;58477;48.072;11.970;2023-04-05T09:18:03;5.38;;;3.67;;
65206;SDS011;58477;48.072;11.970;2023-04-05T09:20:29;4.88;;;3.80;;
65206;SDS011;58477;48.072;11.970;2023-04-05T09:22:55;6.65;;;3.47;;
65206;SDS011;58477;48.072;11.970;2023-04-05T09:27:56;10.98;;;4.20;;
65206;SDS011;58477;48.072;11.970;2023-04-05T09:30:22;5.28;;;3.55;;
65206;SDS011;58477;48.072;11.970;2023-04-05T09:32:52;8.55;;;3.78;;
65206;SDS011;58477;48.072;11.970;2023-04-05T09:35:23;6.28;;;3.92;;
65206;SDS011;58477;48.072;11.970;2023-04-05T09:37:51;5.93;;;3.28;;
65206;SDS011;58477;48.072;11.970;2023-04-05T09:40:18;5.45;;;3.90;;
65206;SDS011;58477;48.072;11.970;2023-04-05T09:42:44;5.10;;;3.65;;
65206;SDS011;58477;48.072;11.970;2023-04-05T09:45:10;6.32;;;4.18;;
65206;SDS011;58477;48.072;11.970;2023-04-05T09:47:52;5.25;;;4.10;;
65206;SDS011;58477;48.072;11.970;2023-04-05T09:50:19;5.65;;;3.13;;
65206;SDS011;58477;48.072;11.970;2023-04-05T09:52:45;4.90;;;3.60;;
65206;SDS011;58477;48.072;11.970;2023-04-05T09:55:10;6.22;;;3.85;;
65206;SDS011;58477;48.072;11.970;2023-04-05T09:57:37;7.43;;;3.80;;
65206;SDS011;58477;48.072;11.970;2023-04-05T10:00:04;7.38;;;3.72;;
65206;SDS011;58477;48.072;11.970;2023-04-05T10:02:39;4.05;;;3.47;;
65206;SDS011;58477;48.072;11.970;2023-04-05T10:05:05;6.07;;;3.28;;
65206;SDS011;58477;48.072;11.970;2023-04-05T10:07:32;4.22;;;3.60;;
65206;SDS011;58477;48.072;11.970;2023-04-05T10:09:58;5.80;;;3.60;;
65206;SDS011;58477;48.072;11.970;2023-04-05T10:12:26;4.47;;;3.55;;
65206;SDS011;58477;48.072;11.970;2023-04-05T10:14:52;5.45;;;3.90;;
65206;SDS011;58477;48.072;11.970;2023-04-05T10:17:23;6.72;;;3.60;;
65206;SDS011;58477;48.072;11.970;2023-04-05T10:20:14;4.53;;;3.15;;
65206;SDS011;58477;48.072;11.970;2023-04-05T10:33:42;5.35;;;3.90;;
65206;SDS011;58477;48.072;11.970;2023-04-05T10:39:00;3.63;;;3.33;;
65206;SDS011;58477;48.072;11.970;2023-04-05T10:41:35;4.53;;;3.35;;
65206;SDS011;58477;48.072;11.970;2023-04-05T10:44:13;3.03;;;2.80;;
65206;SDS011;58477;48.072;11.970;2023-04-05T10:46:39;5.07;;;3.85;;
65206;SDS011;58477;48.072;11.970;2023-04-05T10:49:10;4.75;;;3.78;;
65206;SDS011;58477;48.072;11.970;2023-04-05T10:51:44;4.97;;;3.70;;
65206;SDS011;58477;48.072;11.970;2023-04-05T10:54:10;5.80;;;3.88;;
65206;SDS011;58477;48.072;11.970;2023-04-05T10:56:36;6.20;;;3.58;;
65206;SDS011;58477;48.072;11.970;2023-04-05T10:59:02;4.65;;;3.65;;
65206;SDS011;58477;48.072;11.970;2023-04-05T11:01:29;4.63;;;3.08;;
65206;SDS011;58477;48.072;11.970;2023-04-05T11:03:55;5.18;;;3.72;;
65206;SDS011;58477;48.072;11.970;2023-04-05T11:06:30;5.28;;;3.50;;
65206;SDS011;58477;48.072;11.970;2023-04-05T11:08:58;3.15;;;2.60;;
65206;SDS011;58477;48.072;11.970;2023-04-05T11:11:50;4.35;;;3.83;;
65206;SDS011;58477;48.072;11.970;2023-04-05T11:14:17;3.15;;;2.80;;
65206;SDS011;58477;48.072;11.970;2023-04-05T11:16:50;5.43;;;3.72;;
65206;SDS011;58477;48.072;11.970;2023-04-05T11:19:19;5.60;;;3.78;;
65206;SDS011;58477;48.072;11.970;2023-04-05T11:21:45;5.10;;;3.55;;
65206;SDS011;58477;48.072;11.970;2023-04-05T11:24:12;5.80;;;3.40;;
65206;SDS011;58477;48.072;11.970;2023-04-05T11:29:07;5.93;;;3.65;;
65206;SDS011;58477;48.072;11.970;2023-04-05T11:31:32;5.43;;;3.47;;
65206;SDS011;58477;48.072;11.970;2023-04-05T11:33:59;4.85;;;3.15;;
65206;SDS011;58477;48.072;11.970;2023-04-05T11:44:18;6.13;;;3.83;;
65206;SDS011;58477;48.072;11.970;2023-04-05T11:46:47;5.22;;;3.88;;
65206;SDS011;58477;48.072;11.970;2023-04-05T11:49:13;5.50;;;3.78;;
65206;SDS011;58477;48.072;11.970;2023-04-05T11:51:42;6.63;;;3.55;;
65206;SDS011;58477;48.072;11.970;2023-04-05T11:54:11;3.97;;;2.67;;
65206;SDS011;58477;48.072;11.970;2023-04-05T11:56:36;4.40;;;3.63;;
65206;SDS011;58477;48.072;11.970;2023-04-05T11:59:02;6.85;;;3.35;;
65206;SDS011;58477;48.072;11.970;2023-04-05T12:01:27;5.68;;;3.80;;
65206;SDS011;58477;48.072;11.970;2023-04-05T12:03:53;7.53;;;3.50;;
65206;SDS011;58477;48.072;11.970;2023-04-05T12:06:23;4.88;;;3.72;;
65206;SDS011;58477;48.072;11.970;2023-04-05T12:08:50;6.13;;;4.00;;
65206;SDS011;58477;48.072;11.970;2023-04-05T12:13:52;4.93;;;3.33;;
65206;SDS011;58477;48.072;11.970;2023-04-05T12:16:19;4.93;;;3.50;;
65206;SDS011;58477;48.072;11.970;2023-04-05T12:18:51;6.50;;;4.30;;
65206;SDS011;58477;48.072;11.970;2023-04-05T12:21:20;6.60;;;4.00;;
65206;SDS011;58477;48.072;11.970;2023-04-05T12:23:46;6.75;;;3.75;;
65206;SDS011;58477;48.072;11.970;2023-04-05T12:26:12;5.30;;;3.80;;
65206;SDS011;58477;48.072;11.970;2023-04-05T12:28:48;3.42;;;3.13;;
65206;SDS011;58477;48.072;11.970;2023-04-05T12:31:39;5.47;;;3.50;;
65206;SDS011;58477;48.072;11.970;2023-04-05T12:34:09;5.68;;;3.40;;
65206;SDS011;58477;48.072;11.970;2023-04-05T12:36:35;4.45;;;3.25;;
65206;SDS011;58477;48.072;11.970;2023-04-05T12:39:06;6.70;;;3.50;;
65206;SDS011;58477;48.072;11.970;2023-04-05T12:41:33;6.65;;;3.30;;
65206;SDS011;58477;48.072;11.970;2023-04-05T12:43:58;4.45;;;3.20;;
65206;SDS011;58477;48.072;11.970;2023-04-05T12:49:10;4.47;;;3.50;;
65206;SDS011;58477;48.072;11.970;2023-04-05T12:51:37;4.80;;;3.63;;
65206;SDS011;58477;48.072;11.970;2023-04-05T12:54:07;4.80;;;3.45;;
65206;SDS011;58477;48.072;11.970;2023-04-05T12:56:32;9.75;;;4.25;;
65206;SDS011;58477;48.072;11.970;2023-04-05T12:58:57;4.18;;;3.47;;
65206;SDS011;58477;48.072;11.970;2023-04-05T13:01:23;5.15;;;3.72;;
65206;SDS011;58477;48.072;11.970;2023-04-05T13:03:48;4.47;;;3.50;;
65206;SDS011;58477;48.072;11.970;2023-04-05T13:06:15;3.90;;;3.58;;
65206;SDS011;58477;48.072;11.970;2023-04-05T13:08:41;4.90;;;3.60;;
65206;SDS011;58477;48.072;11.970;2023-04-05T13:11:06;5.18;;;3.58;;
65206;SDS011;58477;48.072;11.970;2023-04-05T13:13:31;6.65;;;3.50;;
65206;SDS011;58477;48.072;11.970;2023-04-05T13:15:58;4.10;;;3.75;;
65206;SDS011;58477;48.072;11.970;2023-04-05T13:18:24;5.32;;;3.30;;
65206;SDS011;58477;48.072;11.970;2023-04-05T13:20:49;4.38;;;3.40;;
65206;SDS011;58477;48.072;11.970;2023-04-05T13:23:15;5.82;;;3.58;;
65206;SDS011;58477;48.072;11.970;2023-04-05T13:25:41;5.97;;;3.75;;
65206;SDS011;58477;48.072;11.970;2023-04-05T13:28:09;6.57;;;3.42;;
65206;SDS011;58477;48.072;11.970;2023-04-05T13:30:35;3.47;;;3.03;;
65206;SDS011;58477;48.072;11.970;2023-04-05T13:33:00;5.95;;;3.40;;
65206;SDS011;58477;48.072;11.970;2023-04-05T13:35:27;6.05;;;3.60;;
65206;SDS011;58477;48.072;11.970;2023-04-05T13:37:53;5.22;;;3.45;;
65206;SDS011;58477;48.072;11.970;2023-04-05T13:40:18;4.72;;;3.83;;
65206;SDS011;58477;48.072;11.970;2023-04-05T13:42:44;4.70;;;3.30;;
65206;SDS011;58477;48.072;11.970;2023-04-05T13:45:10;5.45;;;3.83;;
65206;SDS011;58477;48.072;11.970;2023-04-05T13:47:36;5.53;;;4.10;;
65206;SDS011;58477;48.072;11.970;2023-04-05T13:50:01;6.07;;;3.95;;
65206;SDS011;58477;48.072;11.970;2023-04-05T13:52:27;4.60;;;3.58;;
65206;SDS011;58477;48.072;11.970;2023-04-05T13:54:53;5.30;;;3.97;;
65206;SDS011;58477;48.072;11.970;2023-04-05T13:57:19;5.25;;;4.13;;
65206;SDS011;58477;48.072;11.970;2023-04-05T13:59:45;6.28;;;3.78;;
65206;SDS011;58477;48.072;11.970;2023-04-05T14:02:10;4.30;;;3.40;;
65206;SDS011;58477;48.072;11.970;2023-04-05T14:04:39;3.78;;;2.95;;
65206;SDS011;58477;48.072;11.970;2023-04-05T14:07:05;4.13;;;3.40;;
65206;SDS011;58477;48.072;11.970;2023-04-05T14:09:32;4.13;;;3.70;;
65206;SDS011;58477;48.072;11.970;2023-04-05T14:11:58;12.68;;;4.72;;
65206;SDS011;58477;48.072;11.970;2023-04-05T14:14:25;4.40;;;3.95;;
65206;SDS011;58477;48.072;11.970;2023-04-05T14:16:50;4.03;;;3.50;;
65206;SDS011;58477;48.072;11.970;2023-04-05T14:19:16;6.10;;;3.97;;
65206;SDS011;58477;48.072;11.970;2023-04-05T14:21:42;4.93;;;3.15;;
65206;SDS011;58477;48.072;11.970;2023-04-05T14:24:07;8.23;;;3.95;;
65206;SDS011;58477;48.072;11.970;2023-04-05T14:26:33;5.88;;;4.18;;
65206;SDS011;58477;48.072;11.970;2023-04-05T14:28:58;5.22;;;3.90;;
65206;SDS011;58477;48.072;11.970;2023-04-05T14:31:24;5.95;;;3.75;;
65206;SDS011;58477;48.072;11.970;2023-04-05T14:33:50;4.22;;;3.78;;
65206;SDS011;58477;48.072;11.970;2023-04-05T14:36:16;6.93;;;3.90;;
65206;SDS011;58477;48.072;11.970;2023-04-05T14:38:41;3.55;;;3.25;;
65206;SDS011;58477;48.072;11.970;2023-04-05T14:41:07;10.98;;;3.63;;
65206;SDS011;58477;48.072;11.970;2023-04-05T14:43:32;8.98;;;4.22;;
65206;SDS011;58477;48.072;11.970;2023-04-05T14:45:58;7.75;;;4.00;;
65206;SDS011;58477;48.072;11.970;2023-04-05T14:48:23;5.10;;;3.95;;
65206;SDS011;58477;48.072;11.970;2023-04-05T14:50:49;8.05;;;4.32;;
65206;SDS011;58477;48.072;11.970;2023-04-05T14:53:14;4.78;;;3.83;;
65206;SDS011;58477;48.072;11.970;2023-04-05T14:55:40;5.18;;;3.90;;
65206;SDS011;58477;48.072;11.970;2023-04-05T14:58:05;10.32;;;4.63;;
65206;SDS011;58477;48.072;11.970;2023-04-05T15:00:32;4.20;;;3.72;;
65206;SDS011;58477;48.072;11.970;2023-04-05T15:02:58;4.88;;;3.90;;
65206;SDS011;58477;48.072;11.970;2023-04-05T15:05:23;5.95;;;3.65;;
65206;SDS011;58477;48.072;11.970;2023-04-05T15:07:50;4.65;;;3.70;;
65206;SDS011;58477;48.072;11.970;2023-04-05T15:10:15;8.38;;;3.90;;
65206;SDS011;58477;48.072;11.970;2023-04-05T15:12:42;5.25;;;4.15;;
65206;SDS011;58477;48.072;11.970;2023-04-05T15:15:08;6.25;;;4.07;;
65206;SDS011;58477;48.072;11.970;2023-04-05T15:17:34;4.95;;;3.80;;
65206;SDS011;58477;48.072;11.970;2023-04-05T15:19:59;4.00;;;3.40;;
65206;SDS011;58477;48.072;11.970;2023-04-05T15:22:25;5.85;;;3.55;;
65206;SDS011;58477;48.072;11.970;2023-04-05T15:24:50;5.85;;;3.90;;
65206;SDS011;58477;48.072;11.970;2023-04-05T15:27:16;6.88;;;3.97;;